createdAt,value
2023-05-20T00:00:35.265Z,1017.89
2023-05-20T00:01:35.240Z,1017.89
2023-05-20T00:02:35.277Z,1017.92
2023-05-20T00:03:35.460Z,1017.92
2023-05-20T00:04:35.273Z,1017.90
2023-05-20T00:05:35.190Z,1017.88
2023-05-20T00:06:35.238Z,1017.90
2023-05-20T00:07:35.168Z,1017.92
2023-05-20T00:08:35.163Z,1017.89
2023-05-20T00:09:35.152Z,1017.92
2023-05-20T00:10:35.144Z,1017.94
2023-05-20T00:11:35.128Z,1017.96
2023-05-20T00:12:35.123Z,1017.94
2023-05-20T00:13:35.111Z,1017.89
2023-05-20T00:14:35.105Z,1017.89
2023-05-20T00:15:35.332Z,1017.91
2023-05-20T00:16:35.093Z,1017.88
2023-05-20T00:17:35.075Z,1017.92
2023-05-20T00:18:35.060Z,1017.91
2023-05-20T00:19:35.046Z,1017.86
2023-05-20T00:20:35.029Z,1017.91
2023-05-20T00:21:35.025Z,1017.90
2023-05-20T00:22:35.002Z,1017.91
2023-05-20T00:23:35.009Z,1017.90
2023-05-20T00:24:34.987Z,1017.90
2023-05-20T00:25:35.379Z,1017.90
2023-05-20T00:26:34.967Z,1017.93
2023-05-20T00:27:34.958Z,1017.94
2023-05-20T00:28:34.956Z,1017.93
2023-05-20T00:29:34.941Z,1017.87
2023-05-20T00:30:34.920Z,1017.92
2023-05-20T00:31:34.917Z,1017.91
2023-05-20T00:32:34.922Z,1017.94
2023-05-20T00:33:34.889Z,1017.92
2023-05-20T00:34:34.877Z,1017.91
2023-05-20T00:35:35.112Z,1017.96
2023-05-20T00:36:34.850Z,1017.90
2023-05-20T00:37:34.847Z,1017.92
2023-05-20T00:38:34.828Z,1017.97
2023-05-20T00:39:34.812Z,1017.95
2023-05-20T00:40:34.807Z,1017.97
2023-05-20T00:41:34.788Z,1017.96
2023-05-20T00:42:34.798Z,1017.93
2023-05-20T00:43:34.767Z,1017.92
2023-05-20T00:44:34.766Z,1017.90
2023-05-20T00:45:34.955Z,1017.93
2023-05-20T00:46:34.863Z,1017.91
2023-05-20T00:47:34.762Z,1017.88
2023-05-20T00:48:34.710Z,1017.89
2023-05-20T00:49:34.707Z,1017.92
2023-05-20T00:50:34.698Z,1017.89
2023-05-20T00:51:34.690Z,1017.91
2023-05-20T00:52:34.683Z,1017.93
2023-05-20T00:53:34.657Z,1017.88
2023-05-20T00:54:34.652Z,1017.95
2023-05-20T00:55:34.800Z,1017.96
2023-05-20T00:56:34.640Z,1017.92
2023-05-20T00:57:34.618Z,1017.95
2023-05-20T00:58:34.605Z,1017.92
2023-05-20T00:59:34.588Z,1017.94
2023-05-20T01:00:34.592Z,1017.95
2023-05-20T01:01:34.612Z,1017.89
2023-05-20T01:02:34.625Z,1017.92
2023-05-20T01:03:34.808Z,1017.90
2023-05-20T01:04:34.534Z,1017.88
2023-05-20T01:05:34.783Z,1017.89
2023-05-20T01:06:34.520Z,1017.87
2023-05-20T01:07:34.499Z,1017.87
2023-05-20T01:08:34.492Z,1017.88
2023-05-20T01:09:34.490Z,1017.88
2023-05-20T01:10:34.475Z,1017.84
2023-05-20T01:11:34.465Z,1017.90
2023-05-20T01:12:34.445Z,1017.88
2023-05-20T01:13:34.442Z,1017.84
2023-05-20T01:14:34.432Z,1017.86
2023-05-20T01:15:34.599Z,1017.89
2023-05-20T01:16:34.446Z,1017.88
2023-05-20T01:17:34.431Z,1017.86
2023-05-20T01:18:34.384Z,1017.90
2023-05-20T01:19:34.381Z,1017.88
2023-05-20T01:20:34.354Z,1017.90
2023-05-20T01:21:34.344Z,1017.90
2023-05-20T01:22:34.334Z,1017.89
2023-05-20T01:23:34.330Z,1017.90
2023-05-20T01:24:34.372Z,1017.85
2023-05-20T01:25:34.570Z,1017.92
2023-05-20T01:26:34.288Z,1017.84
2023-05-20T01:27:34.280Z,1017.82
2023-05-20T01:28:34.283Z,1017.85
2023-05-20T01:29:34.268Z,1017.83
2023-05-20T01:30:34.249Z,1017.83
2023-05-20T01:31:34.257Z,1017.82
2023-05-20T01:32:34.249Z,1017.83
2023-05-20T01:33:34.225Z,1017.83
2023-05-20T01:34:34.196Z,1017.83
2023-05-20T01:35:34.326Z,1017.81
2023-05-20T01:36:34.189Z,1017.79
2023-05-20T01:37:34.176Z,1017.77
2023-05-20T01:38:34.168Z,1017.77
2023-05-20T01:39:34.146Z,1017.78
2023-05-20T01:40:34.167Z,1017.74
2023-05-20T01:41:34.123Z,1017.75
2023-05-20T01:42:34.129Z,1017.79
2023-05-20T01:43:34.112Z,1017.79
2023-05-20T01:44:34.109Z,1017.76
2023-05-20T01:45:34.275Z,1017.79
2023-05-20T01:46:34.251Z,1017.75
2023-05-20T01:47:34.085Z,1017.75
2023-05-20T01:48:34.053Z,1017.75
2023-05-20T01:49:34.038Z,1017.73
2023-05-20T01:50:34.052Z,1017.74
2023-05-20T01:51:34.017Z,1017.73
2023-05-20T01:52:34.033Z,1017.75
2023-05-20T01:53:34.021Z,1017.67
2023-05-20T01:54:34.004Z,1017.74
2023-05-20T01:55:34.119Z,1017.70
2023-05-20T01:56:33.976Z,1017.66
2023-05-20T01:57:33.968Z,1017.69
2023-05-20T01:58:33.941Z,1017.69
2023-05-20T01:59:33.923Z,1017.66
2023-05-20T02:00:33.957Z,1017.69
2023-05-20T02:01:33.945Z,1017.71
2023-05-20T02:02:34.098Z,1017.69
2023-05-20T02:03:33.884Z,1017.67
2023-05-20T02:04:33.905Z,1017.67
2023-05-20T02:05:34.144Z,1017.69
2023-05-20T02:06:33.868Z,1017.68
2023-05-20T02:07:33.836Z,1017.68
2023-05-20T02:08:33.850Z,1017.68
2023-05-20T02:09:33.824Z,1017.69
2023-05-20T02:10:33.825Z,1017.63
2023-05-20T02:11:33.793Z,1017.65
2023-05-20T02:12:33.788Z,1017.64
2023-05-20T02:13:33.770Z,1017.60
2023-05-20T02:14:33.766Z,1017.59
2023-05-20T02:15:34.236Z,1017.59
2023-05-20T02:16:33.814Z,1017.64
2023-05-20T02:17:33.762Z,1017.61
2023-05-20T02:18:33.723Z,1017.69
2023-05-20T02:19:33.725Z,1017.69
2023-05-20T02:20:33.712Z,1017.71
2023-05-20T02:21:33.689Z,1017.71
2023-05-20T02:22:33.688Z,1017.74
2023-05-20T02:23:33.669Z,1017.71
2023-05-20T02:24:33.670Z,1017.73
2023-05-20T02:25:33.964Z,1017.74
2023-05-20T02:26:33.639Z,1017.74
2023-05-20T02:27:33.623Z,1017.78
2023-05-20T02:28:33.643Z,1017.73
2023-05-20T02:29:33.608Z,1017.74
2023-05-20T02:30:33.599Z,1017.68
2023-05-20T02:31:33.579Z,1017.69
2023-05-20T02:32:33.676Z,1017.71
2023-05-20T02:33:33.621Z,1017.64
2023-05-20T02:34:33.662Z,1017.73
2023-05-20T02:35:33.748Z,1017.73
2023-05-20T02:36:33.528Z,1017.72
2023-05-20T02:37:33.510Z,1017.65
2023-05-20T02:38:33.516Z,1017.69
2023-05-20T02:39:33.489Z,1017.63
2023-05-20T02:40:33.493Z,1017.64
2023-05-20T02:41:33.470Z,1017.62
2023-05-20T02:42:33.469Z,1017.60
2023-05-20T02:43:33.460Z,1017.56
2023-05-20T02:44:33.441Z,1017.58
2023-05-20T02:45:33.422Z,1017.57
2023-05-20T02:46:33.456Z,1017.60
2023-05-20T02:47:33.433Z,1017.58
2023-05-20T02:48:33.405Z,1017.59
2023-05-20T02:49:33.377Z,1017.64
2023-05-20T02:50:33.368Z,1017.68
2023-05-20T02:51:33.385Z,1017.63
2023-05-20T02:52:33.362Z,1017.66
2023-05-20T02:53:33.331Z,1017.63
2023-05-20T02:54:33.337Z,1017.63
2023-05-20T02:55:33.534Z,1017.66
2023-05-20T02:56:33.309Z,1017.65
2023-05-20T02:57:33.305Z,1017.65
2023-05-20T02:58:33.286Z,1017.67
2023-05-20T02:59:33.272Z,1017.64
2023-05-20T03:00:33.258Z,1017.66
2023-05-20T03:01:33.276Z,1017.64
2023-05-20T03:02:33.257Z,1017.62
2023-05-20T03:03:33.219Z,1017.58
2023-05-20T03:04:33.236Z,1017.59
2023-05-20T03:05:33.337Z,1017.55
2023-05-20T03:06:33.206Z,1017.54
2023-05-20T03:07:33.187Z,1017.57
2023-05-20T03:08:33.177Z,1017.50
2023-05-20T03:09:33.153Z,1017.55
2023-05-20T03:10:33.147Z,1017.52
2023-05-20T03:11:33.150Z,1017.52
2023-05-20T03:12:33.123Z,1017.54
2023-05-20T03:13:33.111Z,1017.50
2023-05-20T03:14:33.120Z,1017.56
2023-05-20T03:15:33.302Z,1017.59
2023-05-20T03:16:33.198Z,1017.58
2023-05-20T03:17:33.113Z,1017.60
2023-05-20T03:18:33.061Z,1017.56
2023-05-20T03:19:33.076Z,1017.57
2023-05-20T03:20:33.054Z,1017.61
2023-05-20T03:21:33.036Z,1017.59
2023-05-20T03:22:33.012Z,1017.64
2023-05-20T03:23:32.990Z,1017.69
2023-05-20T03:24:32.998Z,1017.65
2023-05-20T03:25:33.324Z,1017.62
2023-05-20T03:26:32.966Z,1017.66
2023-05-20T03:27:32.950Z,1017.61
2023-05-20T03:28:32.959Z,1017.65
2023-05-20T03:29:32.932Z,1017.62
2023-05-20T03:30:32.951Z,1017.66
2023-05-20T03:31:32.961Z,1017.61
2023-05-20T03:32:32.954Z,1017.64
2023-05-20T03:33:32.883Z,1017.67
2023-05-20T03:34:32.893Z,1017.62
2023-05-20T03:35:33.113Z,1017.65
2023-05-20T03:36:32.850Z,1017.65
2023-05-20T03:37:32.841Z,1017.67
2023-05-20T03:38:32.846Z,1017.59
2023-05-20T03:39:32.839Z,1017.59
2023-05-20T03:40:32.816Z,1017.61
2023-05-20T03:41:32.843Z,1017.62
2023-05-20T03:42:32.793Z,1017.62
2023-05-20T03:43:32.779Z,1017.61
2023-05-20T03:44:32.791Z,1017.65
2023-05-20T03:45:32.829Z,1017.62
2023-05-20T03:46:32.790Z,1017.63
2023-05-20T03:47:32.781Z,1017.62
2023-05-20T03:48:32.729Z,1017.60
2023-05-20T03:49:32.709Z,1017.61
2023-05-20T03:50:32.716Z,1017.62
2023-05-20T03:51:32.686Z,1017.60
2023-05-20T03:52:32.674Z,1017.60
2023-05-20T03:53:32.673Z,1017.57
2023-05-20T03:54:32.653Z,1017.59
2023-05-20T03:55:32.802Z,1017.55
2023-05-20T03:56:32.634Z,1017.55
2023-05-20T03:57:32.616Z,1017.58
2023-05-20T03:58:32.622Z,1017.60
2023-05-20T03:59:32.612Z,1017.57
2023-05-20T04:00:32.592Z,1017.54
2023-05-20T04:01:32.670Z,1017.62
2023-05-20T04:02:32.630Z,1017.51
2023-05-20T04:03:32.709Z,1017.54
2023-05-20T04:04:32.565Z,1017.58
2023-05-20T04:05:32.640Z,1017.54
2023-05-20T04:06:32.531Z,1017.53
2023-05-20T04:07:32.514Z,1017.58
2023-05-20T04:08:32.510Z,1017.57
2023-05-20T04:09:32.495Z,1017.63
2023-05-20T04:10:32.474Z,1017.62
2023-05-20T04:11:32.465Z,1017.61
2023-05-20T04:12:32.468Z,1017.57
2023-05-20T04:13:32.445Z,1017.54
2023-05-20T04:14:33.821Z,1017.56
2023-05-20T04:15:32.497Z,1017.62
2023-05-20T04:16:32.465Z,1017.57
2023-05-20T04:17:32.582Z,1017.59
2023-05-20T04:18:32.436Z,1017.59
2023-05-20T04:19:32.421Z,1017.64
2023-05-20T04:20:32.433Z,1017.61
2023-05-20T04:21:32.365Z,1017.63
2023-05-20T04:22:32.398Z,1017.60
2023-05-20T04:23:32.329Z,1017.66
2023-05-20T04:24:32.318Z,1017.55
2023-05-20T04:25:32.485Z,1017.56
2023-05-20T04:26:32.352Z,1017.60
2023-05-20T04:27:32.395Z,1017.59
2023-05-20T04:28:32.329Z,1017.62
2023-05-20T04:29:32.264Z,1017.66
2023-05-20T04:30:32.284Z,1017.66
2023-05-20T04:31:32.303Z,1017.69
2023-05-20T04:32:32.343Z,1017.68
2023-05-20T04:33:32.220Z,1017.66
2023-05-20T04:34:32.211Z,1017.68
2023-05-20T04:35:32.316Z,1017.64
2023-05-20T04:36:32.204Z,1017.66
2023-05-20T04:37:32.196Z,1017.68
2023-05-20T04:38:32.165Z,1017.64
2023-05-20T04:39:32.148Z,1017.57
2023-05-20T04:40:32.146Z,1017.57
2023-05-20T04:41:32.138Z,1017.63
2023-05-20T04:42:32.144Z,1017.70
2023-05-20T04:43:32.108Z,1017.68
2023-05-20T04:44:32.113Z,1017.71
2023-05-20T04:45:32.173Z,1017.72
2023-05-20T04:46:32.174Z,1017.68
2023-05-20T04:47:32.076Z,1017.72
2023-05-20T04:48:32.075Z,1017.76
2023-05-20T04:49:32.040Z,1017.82
2023-05-20T04:50:32.187Z,1017.81
2023-05-20T04:51:32.066Z,1017.75
2023-05-20T04:52:31.999Z,1017.77
2023-05-20T04:53:32.004Z,1017.75
2023-05-20T04:54:32.508Z,1017.72
2023-05-20T04:55:32.106Z,1017.70
2023-05-20T04:56:31.972Z,1017.68
2023-05-20T04:57:31.958Z,1017.68
2023-05-20T04:58:31.935Z,1017.65
2023-05-20T04:59:31.945Z,1017.61
2023-05-20T05:00:31.913Z,1017.67
2023-05-20T05:01:31.962Z,1017.66
2023-05-20T05:02:31.914Z,1017.65
2023-05-20T05:03:34.473Z,1017.62
2023-05-20T05:04:31.935Z,1017.60
2023-05-20T05:05:32.049Z,1017.63
2023-05-20T05:06:31.853Z,1017.62
2023-05-20T05:07:31.842Z,1017.59
2023-05-20T05:08:31.840Z,1017.62
2023-05-20T05:09:33.114Z,1017.62
2023-05-20T05:10:31.810Z,1017.62
2023-05-20T05:11:31.884Z,1017.63
2023-05-20T05:12:31.786Z,1017.57
2023-05-20T05:13:31.787Z,1017.64
2023-05-20T05:14:31.762Z,1017.57
2023-05-20T05:15:31.858Z,1017.51
2023-05-20T05:16:31.800Z,1017.49
2023-05-20T05:17:31.784Z,1017.46
2023-05-20T05:18:31.741Z,1017.49
2023-05-20T05:19:31.719Z,1017.51
2023-05-20T05:20:31.790Z,1017.55
2023-05-20T05:21:31.938Z,1017.49
2023-05-20T05:22:31.907Z,1017.43
2023-05-20T05:23:31.683Z,1017.47
2023-05-20T05:24:31.654Z,1017.52
2023-05-20T05:25:31.773Z,1017.49
2023-05-20T05:26:31.635Z,1017.47
2023-05-20T05:27:31.651Z,1017.55
2023-05-20T05:28:31.621Z,1017.54
2023-05-20T05:29:31.628Z,1017.52
2023-05-20T05:30:31.589Z,1017.52
2023-05-20T05:31:31.582Z,1017.52
2023-05-20T05:32:31.710Z,1017.53
2023-05-20T05:33:31.674Z,1017.52
2023-05-20T05:34:31.551Z,1017.50
2023-05-20T05:35:31.596Z,1017.50
2023-05-20T05:36:31.529Z,1017.46
2023-05-20T05:37:31.525Z,1017.56
2023-05-20T05:38:31.493Z,1017.53
2023-05-20T05:39:31.498Z,1017.47
2023-05-20T05:40:31.481Z,1017.49
2023-05-20T05:41:31.481Z,1017.49
2023-05-20T05:42:31.481Z,1017.52
2023-05-20T05:43:31.455Z,1017.50
2023-05-20T05:44:31.429Z,1017.45
2023-05-20T05:45:31.623Z,1017.50
2023-05-20T05:46:31.618Z,1017.51
2023-05-20T05:47:31.443Z,1017.54
2023-05-20T05:48:31.387Z,1017.48
2023-05-20T05:49:31.376Z,1017.50
2023-05-20T05:50:31.386Z,1017.48
2023-05-20T05:51:31.374Z,1017.48
2023-05-20T05:52:31.346Z,1017.47
2023-05-20T05:53:31.329Z,1017.48
2023-05-20T05:54:31.327Z,1017.50
2023-05-20T05:55:31.374Z,1017.47
2023-05-20T05:56:31.322Z,1017.53
2023-05-20T05:57:31.292Z,1017.47
2023-05-20T05:58:31.277Z,1017.47
2023-05-20T05:59:31.262Z,1017.49
2023-05-20T06:00:31.264Z,1017.38
2023-05-20T06:01:31.250Z,1017.44
2023-05-20T06:02:31.302Z,1017.41
2023-05-20T06:03:31.348Z,1017.39
2023-05-20T06:04:31.275Z,1017.41
2023-05-20T06:05:31.292Z,1017.42
2023-05-20T06:06:31.188Z,1017.40
2023-05-20T06:07:31.182Z,1017.42
2023-05-20T06:08:31.171Z,1017.42
2023-05-20T06:09:31.153Z,1017.45
2023-05-20T06:10:31.162Z,1017.47
2023-05-20T06:11:31.134Z,1017.49
2023-05-20T06:12:31.127Z,1017.46
2023-05-20T06:13:31.106Z,1017.48
2023-05-20T06:14:31.111Z,1017.54
2023-05-20T06:15:31.094Z,1017.51
2023-05-20T06:16:31.081Z,1017.45
2023-05-20T06:17:31.103Z,1017.47
2023-05-20T06:18:31.052Z,1017.51
2023-05-20T06:19:31.101Z,1017.45
2023-05-20T06:20:31.101Z,1017.42
2023-05-20T06:21:31.014Z,1017.43
2023-05-20T06:22:31.022Z,1017.35
2023-05-20T06:23:30.993Z,1017.40
2023-05-20T06:24:31.006Z,1017.33
2023-05-20T06:25:31.039Z,1017.31
2023-05-20T06:26:30.965Z,1017.31
2023-05-20T06:27:30.986Z,1017.31
2023-05-20T06:28:30.955Z,1017.31
2023-05-20T06:29:30.952Z,1017.30
2023-05-20T06:30:30.915Z,1017.30
2023-05-20T06:31:31.048Z,1017.30
2023-05-20T06:32:30.959Z,1017.31
2023-05-20T06:33:30.891Z,1017.24
2023-05-20T06:34:30.979Z,1017.28
2023-05-20T06:35:30.867Z,1017.25
2023-05-20T06:36:33.015Z,1017.23
2023-05-20T06:37:30.863Z,1017.23
2023-05-20T06:38:30.847Z,1017.28
2023-05-20T06:39:30.829Z,1017.25
2023-05-20T06:40:30.813Z,1017.27
2023-05-20T06:41:30.798Z,1017.26
2023-05-20T06:42:30.802Z,1017.31
2023-05-20T06:43:30.779Z,1017.29
2023-05-20T06:44:30.766Z,1017.27
2023-05-20T06:45:30.765Z,1017.24
2023-05-20T06:46:31.082Z,1017.20
2023-05-20T06:47:31.108Z,1017.28
2023-05-20T06:48:31.963Z,1017.36
2023-05-20T06:49:30.918Z,1017.17
2023-05-20T06:50:30.935Z,1017.30
2023-05-20T06:51:30.955Z,1017.29
2023-05-20T06:52:30.701Z,1017.25
2023-05-20T06:53:30.667Z,1017.25
2023-05-20T06:54:30.655Z,1017.28
2023-05-20T06:55:30.641Z,1017.24
2023-05-20T06:56:30.644Z,1017.25
2023-05-20T06:57:30.631Z,1017.23
2023-05-20T06:58:30.612Z,1017.25
2023-05-20T06:59:30.608Z,1017.31
2023-05-20T07:00:30.646Z,1017.19
2023-05-20T07:01:30.621Z,1017.22
2023-05-20T07:02:30.632Z,1017.24
2023-05-20T07:03:30.598Z,1017.23
2023-05-20T07:04:30.549Z,1017.27
2023-05-20T07:05:30.529Z,1017.25
2023-05-20T07:06:30.538Z,1017.21
2023-05-20T07:07:30.522Z,1017.25
2023-05-20T07:08:30.506Z,1017.26
2023-05-20T07:09:30.492Z,1017.18
2023-05-20T07:10:30.490Z,1017.13
2023-05-20T07:11:30.480Z,1017.18
2023-05-20T07:12:30.450Z,1017.20
2023-05-20T07:13:30.445Z,1017.18
2023-05-20T07:14:30.427Z,1017.17
2023-05-20T07:15:30.444Z,1017.13
2023-05-20T07:16:30.461Z,1017.15
2023-05-20T07:17:30.435Z,1017.08
2023-05-20T07:18:30.385Z,1017.10
2023-05-20T07:19:30.446Z,1017.14
2023-05-20T07:20:30.375Z,1017.14
2023-05-20T07:21:30.367Z,1017.15
2023-05-20T07:22:30.342Z,1017.18
2023-05-20T07:23:30.339Z,1017.17
2023-05-20T07:24:30.338Z,1017.18
2023-05-20T07:25:30.320Z,1017.16
2023-05-20T07:26:30.299Z,1017.18
2023-05-20T07:27:30.289Z,1017.15
2023-05-20T07:28:30.282Z,1017.22
2023-05-20T07:29:30.281Z,1017.15
2023-05-20T07:30:30.259Z,1017.12
2023-05-20T07:31:30.317Z,1017.18
2023-05-20T07:32:30.285Z,1017.09
2023-05-20T07:33:30.254Z,1017.15
2023-05-20T07:34:30.225Z,1017.10
2023-05-20T07:35:30.212Z,1017.11
2023-05-20T07:36:30.193Z,1017.06
2023-05-20T07:37:30.224Z,1017.11
2023-05-20T07:38:30.186Z,1017.08
2023-05-20T07:39:30.168Z,1017.16
2023-05-20T07:40:30.142Z,1017.08
2023-05-20T07:41:30.139Z,1017.14
2023-05-20T07:42:30.140Z,1017.15
2023-05-20T07:43:30.128Z,1017.15
2023-05-20T07:44:30.109Z,1017.10
2023-05-20T07:45:30.100Z,1017.06
2023-05-20T07:46:30.146Z,1017.08
2023-05-20T07:47:30.103Z,1017.06
2023-05-20T07:48:30.065Z,1017.04
2023-05-20T07:49:30.053Z,1017.03
2023-05-20T07:50:30.034Z,1017.05
2023-05-20T07:51:30.027Z,1017.05
2023-05-20T07:52:32.119Z,1017.03
2023-05-20T07:53:30.018Z,1017.01
2023-05-20T07:54:29.997Z,1017.03
2023-05-20T07:55:29.991Z,1017.04
2023-05-20T07:56:29.972Z,1017.04
2023-05-20T07:57:29.973Z,1017.02
2023-05-20T07:58:29.971Z,1017.00
2023-05-20T07:59:29.949Z,1016.99
2023-05-20T08:00:29.922Z,1016.96
2023-05-20T08:01:29.928Z,1017.03
2023-05-20T08:02:30.042Z,1017.05
2023-05-20T08:03:30.189Z,1016.96
2023-05-20T08:04:29.916Z,1016.92
2023-05-20T08:05:29.891Z,1016.97
2023-05-20T08:06:30.111Z,1016.98
2023-05-20T08:07:29.860Z,1017.02
2023-05-20T08:08:29.836Z,1016.85
2023-05-20T08:09:29.844Z,1016.97
2023-05-20T08:10:29.827Z,1016.88
2023-05-20T08:11:29.836Z,1016.94
2023-05-20T08:12:29.821Z,1016.97
2023-05-20T08:13:29.787Z,1016.94
2023-05-20T08:14:29.784Z,1016.93
2023-05-20T08:15:29.768Z,1016.94
2023-05-20T08:16:29.785Z,1017.04
2023-05-20T08:17:29.786Z,1016.89
2023-05-20T08:18:29.728Z,1016.96
2023-05-20T08:19:29.836Z,1016.87
2023-05-20T08:20:29.707Z,1017.00
2023-05-20T08:21:29.707Z,1016.81
2023-05-20T08:22:29.693Z,1016.82
2023-05-20T08:23:29.683Z,1016.79
2023-05-20T08:24:29.660Z,1016.80
2023-05-20T08:25:29.651Z,1016.88
2023-05-20T08:26:29.648Z,1016.81
2023-05-20T08:27:29.630Z,1016.80
2023-05-20T08:28:29.620Z,1016.91
2023-05-20T08:29:29.606Z,1016.78
2023-05-20T08:30:29.598Z,1016.83
2023-05-20T08:31:29.649Z,1016.82
2023-05-20T08:32:29.616Z,1016.84
2023-05-20T08:33:29.575Z,1016.82
2023-05-20T08:34:29.551Z,1016.88
2023-05-20T08:35:29.598Z,1016.88
2023-05-20T08:36:29.522Z,1016.83
2023-05-20T08:37:29.539Z,1016.87
2023-05-20T08:38:29.517Z,1016.83
2023-05-20T08:39:29.516Z,1016.91
2023-05-20T08:40:29.508Z,1016.77
2023-05-20T08:41:29.498Z,1016.74
2023-05-20T08:42:29.457Z,1016.74
2023-05-20T08:43:29.448Z,1016.73
2023-05-20T08:44:29.443Z,1016.75
2023-05-20T08:45:29.439Z,1016.73
2023-05-20T08:46:29.454Z,1016.70
2023-05-20T08:47:29.421Z,1016.72
2023-05-20T08:48:29.398Z,1016.67
2023-05-20T08:49:29.387Z,1016.76
2023-05-20T08:50:29.378Z,1016.74
2023-05-20T08:51:29.366Z,1016.70
2023-05-20T08:52:29.349Z,1016.69
2023-05-20T08:53:29.346Z,1016.67
2023-05-20T08:54:29.326Z,1016.76
2023-05-20T08:55:29.334Z,1016.66
2023-05-20T08:56:30.992Z,1016.86
2023-05-20T08:57:29.309Z,1016.75
2023-05-20T08:58:29.284Z,1016.70
2023-05-20T08:59:29.289Z,1016.72
2023-05-20T09:00:29.281Z,1016.73
2023-05-20T09:01:29.303Z,1016.80
2023-05-20T09:02:29.356Z,1016.73
2023-05-20T09:03:29.233Z,1016.83
2023-05-20T09:04:29.269Z,1016.71
2023-05-20T09:05:29.214Z,1016.65
2023-05-20T09:06:29.194Z,1016.64
2023-05-20T09:07:29.188Z,1016.86
2023-05-20T09:08:29.177Z,1016.75
2023-05-20T09:09:29.177Z,1016.66
2023-05-20T09:10:29.158Z,1016.68
2023-05-20T09:11:29.143Z,1016.69
2023-05-20T09:12:29.134Z,1016.68
2023-05-20T09:13:29.132Z,1016.67
2023-05-20T09:14:29.118Z,1016.66
2023-05-20T09:15:29.102Z,1016.66
2023-05-20T09:16:29.127Z,1016.65
2023-05-20T09:17:29.099Z,1016.65
2023-05-20T09:18:29.075Z,1016.72
2023-05-20T09:19:29.101Z,1016.65
2023-05-20T09:20:29.051Z,1016.61
2023-05-20T09:21:29.047Z,1016.61
2023-05-20T09:22:29.040Z,1016.61
2023-05-20T09:23:29.019Z,1016.71
2023-05-20T09:24:28.995Z,1016.60
2023-05-20T09:25:28.990Z,1016.63
2023-05-20T09:26:28.975Z,1016.62
2023-05-20T09:27:29.095Z,1016.63
2023-05-20T09:28:28.958Z,1016.59
2023-05-20T09:29:28.951Z,1016.50
2023-05-20T09:30:28.933Z,1016.62
2023-05-20T09:31:28.937Z,1016.58
2023-05-20T09:32:29.004Z,1016.61
2023-05-20T09:33:28.911Z,1016.57
2023-05-20T09:34:28.888Z,1016.56
2023-05-20T09:35:28.885Z,1016.55
2023-05-20T09:36:28.864Z,1016.57
2023-05-20T09:37:28.873Z,1016.49
2023-05-20T09:38:28.848Z,1016.47
2023-05-20T09:39:28.835Z,1016.43
2023-05-20T09:40:28.813Z,1016.55
2023-05-20T09:41:28.831Z,1016.45
2023-05-20T09:42:28.809Z,1016.48
2023-05-20T09:43:28.795Z,1016.47
2023-05-20T09:44:28.776Z,1016.45
2023-05-20T09:45:28.776Z,1016.45
2023-05-20T09:46:28.776Z,1016.42
2023-05-20T09:47:28.746Z,1016.41
2023-05-20T09:48:28.730Z,1016.39
2023-05-20T09:49:28.728Z,1016.42
2023-05-20T09:50:28.747Z,1016.32
2023-05-20T09:51:28.711Z,1016.40
2023-05-20T09:52:28.687Z,1016.36
2023-05-20T09:53:28.682Z,1016.34
2023-05-20T09:54:28.671Z,1016.29
2023-05-20T09:55:28.682Z,1016.50
2023-05-20T09:56:28.657Z,1016.25
2023-05-20T09:57:28.635Z,1016.47
2023-05-20T09:58:28.630Z,1016.28
2023-05-20T09:59:28.626Z,1016.25
2023-05-20T10:00:28.620Z,1016.30
2023-05-20T10:01:28.659Z,1016.31
2023-05-20T10:02:28.701Z,1016.37
2023-05-20T10:03:28.850Z,1016.21
2023-05-20T10:04:28.555Z,1016.27
2023-05-20T10:05:28.556Z,1016.35
2023-05-20T10:06:28.535Z,1016.39
2023-05-20T10:07:41.194Z,1016.27
2023-05-20T10:08:28.526Z,1016.21
2023-05-20T10:09:28.516Z,1016.34
2023-05-20T10:10:28.502Z,1016.22
2023-05-20T10:11:28.484Z,1016.16
2023-05-20T10:12:28.467Z,1016.22
2023-05-20T10:13:28.484Z,1016.27
2023-05-20T10:14:28.461Z,1016.26
2023-05-20T10:15:28.486Z,1016.24
2023-05-20T10:16:28.551Z,1016.27
2023-05-20T10:17:28.476Z,1016.20
2023-05-20T10:18:28.402Z,1016.19
2023-05-20T10:19:28.910Z,1016.15
2023-05-20T10:20:28.389Z,1016.14
2023-05-20T10:21:28.383Z,1016.13
2023-05-20T10:22:28.376Z,1016.02
2023-05-20T10:23:28.385Z,1016.11
2023-05-20T10:24:28.352Z,1016.08
2023-05-20T10:25:28.362Z,1016.14
2023-05-20T10:26:28.325Z,1016.09
2023-05-20T10:27:28.312Z,1016.06
2023-05-20T10:28:28.304Z,1015.97
2023-05-20T10:29:28.324Z,1015.99
2023-05-20T10:30:28.272Z,1016.12
2023-05-20T10:31:28.270Z,1016.09
2023-05-20T10:32:28.356Z,1016.13
2023-05-20T10:33:28.369Z,1016.17
2023-05-20T10:34:28.234Z,1016.08
2023-05-20T10:35:28.230Z,1016.10
2023-05-20T10:36:28.207Z,1016.09
2023-05-20T10:37:28.210Z,1016.06
2023-05-20T10:38:28.197Z,1016.13
2023-05-20T10:39:28.178Z,1016.07
2023-05-20T10:40:28.159Z,1015.98
2023-05-20T10:41:28.154Z,1016.02
2023-05-20T10:42:28.161Z,1016.07
2023-05-20T10:43:28.138Z,1015.92
2023-05-20T10:44:28.116Z,1015.96
2023-05-20T10:45:28.110Z,1015.93
2023-05-20T10:46:36.707Z,1015.93
2023-05-20T10:47:28.151Z,1015.81
2023-05-20T10:48:28.155Z,1015.94
2023-05-20T10:49:28.187Z,1015.88
2023-05-20T10:50:28.064Z,1015.88
2023-05-20T10:51:28.045Z,1015.94
2023-05-20T10:52:28.038Z,1015.85
2023-05-20T10:53:33.925Z,1015.82
2023-05-20T10:54:28.008Z,1015.79
2023-05-20T10:55:27.999Z,1015.87
2023-05-20T10:56:27.986Z,1015.85
2023-05-20T10:57:27.994Z,1015.81
2023-05-20T10:58:27.965Z,1015.83
2023-05-20T10:59:27.956Z,1015.76
2023-05-20T11:00:27.940Z,1015.70
2023-05-20T11:01:27.956Z,1015.76
2023-05-20T11:02:27.977Z,1015.71
2023-05-20T11:03:27.981Z,1015.63
2023-05-20T11:04:27.911Z,1015.67
2023-05-20T11:05:27.897Z,1015.72
2023-05-20T11:06:27.885Z,1015.61
2023-05-20T11:07:27.895Z,1015.63
2023-05-20T11:08:29.376Z,1015.60
2023-05-20T11:09:27.853Z,1015.62
2023-05-20T11:10:27.844Z,1015.54
2023-05-20T11:11:27.835Z,1015.52
2023-05-20T11:12:27.847Z,1015.56
2023-05-20T11:13:27.849Z,1015.60
2023-05-20T11:14:27.781Z,1015.61
2023-05-20T11:15:27.796Z,1015.56
2023-05-20T11:16:27.839Z,1015.52
2023-05-20T11:17:27.838Z,1015.54
2023-05-20T11:18:27.745Z,1015.58
2023-05-20T11:19:27.850Z,1015.35
2023-05-20T11:20:27.739Z,1015.55
2023-05-20T11:21:27.720Z,1015.51
2023-05-20T11:22:27.705Z,1015.47
2023-05-20T11:23:27.698Z,1015.51
2023-05-20T11:24:27.739Z,1015.45
2023-05-20T11:25:27.697Z,1015.44
2023-05-20T11:26:27.659Z,1015.45
2023-05-20T11:27:27.651Z,1015.35
2023-05-20T11:28:27.644Z,1015.49
2023-05-20T11:29:27.645Z,1015.44
2023-05-20T11:30:27.649Z,1015.48
2023-05-20T11:31:27.622Z,1015.43
2023-05-20T11:32:27.712Z,1015.36
2023-05-20T11:33:27.602Z,1015.33
2023-05-20T11:34:29.332Z,1015.45
2023-05-20T11:35:27.574Z,1015.39
2023-05-20T11:36:28.317Z,1015.35
2023-05-20T11:37:27.553Z,1015.52
2023-05-20T11:38:27.542Z,1015.31
2023-05-20T11:39:27.560Z,1015.39
2023-05-20T11:40:30.652Z,1015.48
2023-05-20T11:41:27.517Z,1015.43
2023-05-20T11:42:27.484Z,1015.45
2023-05-20T11:43:27.476Z,1015.41
2023-05-20T11:44:27.468Z,1015.42
2023-05-20T11:45:27.469Z,1015.37
2023-05-20T11:46:27.508Z,1015.51
2023-05-20T11:47:27.520Z,1015.42
2023-05-20T11:48:27.431Z,1015.44
2023-05-20T11:49:27.469Z,1015.45
2023-05-20T11:50:27.394Z,1015.51
2023-05-20T11:51:27.387Z,1015.43
2023-05-20T11:52:27.370Z,1015.49
2023-05-20T11:53:27.360Z,1015.50
2023-05-20T11:54:27.357Z,1015.43
2023-05-20T11:55:27.344Z,1015.46
2023-05-20T11:56:27.328Z,1015.46
2023-05-20T11:57:27.322Z,1015.41
2023-05-20T11:58:27.330Z,1015.44
2023-05-20T11:59:27.313Z,1015.51
2023-05-20T12:00:31.223Z,1015.47
2023-05-20T12:01:27.579Z,1015.48
2023-05-20T12:02:27.368Z,1015.45
2023-05-20T12:03:27.402Z,1015.46
2023-05-20T12:04:27.274Z,1015.52
2023-05-20T12:05:27.235Z,1015.53